Pociūnai Airfield

EYPR · Kaunas, 立陶宛

使用的METAR站距离机场35 km。
罗盘
风向 的 风向 270° Pociūnai Airfield 4/22
风: 7 kt, 3 beaufort

5 kt

5 kt
改变
0 ft 1.000 2.000 3.000 4.000 5.000
Cloud Cloud Cloud Cloud Cloud Cloud Cloud Cloud
OVC 400
METAR EYKA 162250Z 27007KT 4300 -DZ BR OVC004 04/03 Q0997

METAR Pociūnai Airfield - EYPR

Pociūnai Airfield是,立陶宛中的小机场。 该机场位于纬度54,65125和经度24,05926。 该机场有3条跑道: 4/22, 18/36 和 9/27. 本场的ICAO机场代码为EYPR。 机场在Vilnius FIR中。

该航空气象观测是针对考纳斯机场在2024年4月17日 01:50, 当地时间进行的。

机场观察

风向为270°,速度为7 kt。

可见度为4,3 km。

有乌云密布在400 ft的高度。 破损或更高的上限为400 ft。

当前天气为光 细雨, 薄雾。 温度为4 °C,阵风为-1 °C。 露点为3 °C,相对湿度为93%。 海平面上的气压为997 hPa (QNH)。

白天

今天,太阳从06:17升起,在20:29降落。 这适用于Pociūnai Airfield,世界夏令时可能有所不同。 当地时间与世界标准时间之间的时差为+3 小时。 夏令时目前正在进行中。

公司介绍

在这个机场,你可以找到滑翔机飞行俱乐部 和 跳伞中心。 这个机场上的公司有Kaunas County Gliding Club 和 Kaunas Skydiving Club。

体会

到Vliegles.nl去找飞行课程,跳伞和其他飞行体验。 浏览页面,了解Pociūnai Airfield附近所有可用的活动。 你也可以使用搜索功能来寻找你所在地附近的特定飞行课程、跳伞或其他飞行体验。

跑道

Id 标题 侧风 逆风 侧风 %
4/22 048°-228° 5 kt 5 kt 67 %
18/36 182°-002° 7 kt 100 %
9/27 088°-268° 7 kt 3 %

逆风成分最大的方向会被突出显示,并用于横风计算。 这并不一定意味着这个方向在使用。

乌云

400 ft OVC 乌云密布

温度 & 天气

天气 光 细雨
薄雾
温度 4 °C
露点 3 °C
相对湿度 93%
风寒 -1 °C
Kp-index 5 (0-9)

白天

日出
06:16 (4:05)
中午
13:23
日落
20:30

小工具

你想在你的网站上有一个关于Pociūnai Airfield的当前航空天气(METAR)的小部件吗?

显示HTML代码
报告变更